sensor_id;sensor_type;location;lat;lon;timestamp;P1;durP1;ratioP1;P2;durP2;ratioP2
4422;SDS011;2224;49.814;8.650;2023-07-13T00:02:07;2.50;;;2.00;;
4422;SDS011;2224;49.814;8.650;2023-07-13T00:04:33;5.77;;;2.10;;
4422;SDS011;2224;49.814;8.650;2023-07-13T00:06:58;3.23;;;1.80;;
4422;SDS011;2224;49.814;8.650;2023-07-13T00:09:24;3.07;;;1.97;;
4422;SDS011;2224;49.814;8.650;2023-07-13T00:11:51;2.43;;;1.60;;
4422;SDS011;2224;49.814;8.650;2023-07-13T00:14:18;3.00;;;1.60;;
4422;SDS011;2224;49.814;8.650;2023-07-13T00:16:44;3.60;;;2.23;;
4422;SDS011;2224;49.814;8.650;2023-07-13T00:19:10;5.03;;;2.10;;
4422;SDS011;2224;49.814;8.650;2023-07-13T00:21:36;4.47;;;2.00;;
4422;SDS011;2224;49.814;8.650;2023-07-13T00:24:02;2.50;;;1.80;;
4422;SDS011;2224;49.814;8.650;2023-07-13T00:26:27;3.03;;;1.70;;
4422;SDS011;2224;49.814;8.650;2023-07-13T00:28:53;4.03;;;1.90;;
4422;SDS011;2224;49.814;8.650;2023-07-13T00:31:18;3.43;;;2.07;;
4422;SDS011;2224;49.814;8.650;2023-07-13T00:33:44;2.97;;;2.20;;
4422;SDS011;2224;49.814;8.650;2023-07-13T00:36:09;1.80;;;1.70;;
4422;SDS011;2224;49.814;8.650;2023-07-13T00:38:35;2.40;;;2.20;;
4422;SDS011;2224;49.814;8.650;2023-07-13T00:41:01;3.60;;;2.30;;
4422;SDS011;2224;49.814;8.650;2023-07-13T00:43:28;1.90;;;1.70;;
4422;SDS011;2224;49.814;8.650;2023-07-13T00:48:24;3.30;;;1.70;;
4422;SDS011;2224;49.814;8.650;2023-07-13T00:50:54;5.23;;;2.20;;
4422;SDS011;2224;49.814;8.650;2023-07-13T00:53:21;3.30;;;1.90;;
4422;SDS011;2224;49.814;8.650;2023-07-13T00:55:47;3.17;;;2.13;;
4422;SDS011;2224;49.814;8.650;2023-07-13T00:58:14;1.93;;;1.70;;
4422;SDS011;2224;49.814;8.650;2023-07-13T01:00:39;2.80;;;2.00;;
4422;SDS011;2224;49.814;8.650;2023-07-13T01:03:05;3.47;;;2.03;;
4422;SDS011;2224;49.814;8.650;2023-07-13T01:05:31;7.70;;;2.50;;
4422;SDS011;2224;49.814;8.650;2023-07-13T01:07:58;2.43;;;2.23;;
4422;SDS011;2224;49.814;8.650;2023-07-13T01:10:24;3.23;;;2.27;;
4422;SDS011;2224;49.814;8.650;2023-07-13T01:12:50;5.10;;;2.40;;
4422;SDS011;2224;49.814;8.650;2023-07-13T01:18:05;3.47;;;2.30;;
4422;SDS011;2224;49.814;8.650;2023-07-13T01:20:32;5.23;;;2.53;;
4422;SDS011;2224;49.814;8.650;2023-07-13T01:23:03;3.63;;;2.23;;
4422;SDS011;2224;49.814;8.650;2023-07-13T01:25:31;3.57;;;2.47;;
4422;SDS011;2224;49.814;8.650;2023-07-13T01:27:56;5.93;;;2.03;;
4422;SDS011;2224;49.814;8.650;2023-07-13T01:30:22;3.50;;;2.30;;
4422;SDS011;2224;49.814;8.650;2023-07-13T01:32:47;5.80;;;2.40;;
4422;SDS011;2224;49.814;8.650;2023-07-13T01:35:12;1.97;;;1.77;;
4422;SDS011;2224;49.814;8.650;2023-07-13T01:37:38;3.33;;;2.00;;
4422;SDS011;2224;49.814;8.650;2023-07-13T01:40:03;2.87;;;2.20;;
4422;SDS011;2224;49.814;8.650;2023-07-13T01:42:29;4.40;;;2.63;;
4422;SDS011;2224;49.814;8.650;2023-07-13T01:44:55;2.27;;;2.10;;
4422;SDS011;2224;49.814;8.650;2023-07-13T01:47:20;3.93;;;2.30;;
4422;SDS011;2224;49.814;8.650;2023-07-13T01:49:47;3.13;;;2.67;;
4422;SDS011;2224;49.814;8.650;2023-07-13T01:52:12;3.00;;;2.30;;
4422;SDS011;2224;49.814;8.650;2023-07-13T01:54:37;3.33;;;2.13;;
4422;SDS011;2224;49.814;8.650;2023-07-13T01:57:03;6.97;;;2.23;;
4422;SDS011;2224;49.814;8.650;2023-07-13T01:59:28;4.10;;;2.60;;
4422;SDS011;2224;49.814;8.650;2023-07-13T02:01:54;4.50;;;2.00;;
4422;SDS011;2224;49.814;8.650;2023-07-13T02:04:19;3.63;;;2.23;;
4422;SDS011;2224;49.814;8.650;2023-07-13T02:06:44;3.20;;;2.20;;
4422;SDS011;2224;49.814;8.650;2023-07-13T02:09:10;5.10;;;2.70;;
4422;SDS011;2224;49.814;8.650;2023-07-13T02:11:35;7.07;;;2.60;;
4422;SDS011;2224;49.814;8.650;2023-07-13T02:14:00;4.03;;;2.43;;
4422;SDS011;2224;49.814;8.650;2023-07-13T02:16:26;3.13;;;2.40;;
4422;SDS011;2224;49.814;8.650;2023-07-13T02:18:52;4.27;;;2.47;;
4422;SDS011;2224;49.814;8.650;2023-07-13T02:21:17;3.73;;;2.63;;
4422;SDS011;2224;49.814;8.650;2023-07-13T02:23:43;3.80;;;2.03;;
4422;SDS011;2224;49.814;8.650;2023-07-13T02:26:08;3.10;;;2.43;;
4422;SDS011;2224;49.814;8.650;2023-07-13T02:28:34;2.50;;;2.30;;
4422;SDS011;2224;49.814;8.650;2023-07-13T02:31:10;5.27;;;3.00;;
4422;SDS011;2224;49.814;8.650;2023-07-13T02:33:36;3.87;;;2.63;;
4422;SDS011;2224;49.814;8.650;2023-07-13T02:36:02;3.33;;;2.27;;
4422;SDS011;2224;49.814;8.650;2023-07-13T02:38:30;3.67;;;2.30;;
4422;SDS011;2224;49.814;8.650;2023-07-13T02:40:58;3.37;;;2.20;;
4422;SDS011;2224;49.814;8.650;2023-07-13T02:43:24;3.63;;;2.20;;
4422;SDS011;2224;49.814;8.650;2023-07-13T02:45:49;3.50;;;2.20;;
4422;SDS011;2224;49.814;8.650;2023-07-13T02:48:14;2.70;;;2.50;;
4422;SDS011;2224;49.814;8.650;2023-07-13T02:50:40;4.50;;;3.90;;
4422;SDS011;2224;49.814;8.650;2023-07-13T02:53:05;3.60;;;3.30;;
4422;SDS011;2224;49.814;8.650;2023-07-13T02:55:31;3.60;;;2.60;;
4422;SDS011;2224;49.814;8.650;2023-07-13T02:57:56;3.20;;;2.90;;
4422;SDS011;2224;49.814;8.650;2023-07-13T03:00:22;3.60;;;2.70;;
4422;SDS011;2224;49.814;8.650;2023-07-13T03:02:47;3.90;;;2.30;;
4422;SDS011;2224;49.814;8.650;2023-07-13T03:05:13;3.57;;;2.70;;
4422;SDS011;2224;49.814;8.650;2023-07-13T03:07:39;3.77;;;2.80;;
4422;SDS011;2224;49.814;8.650;2023-07-13T03:10:04;2.40;;;2.20;;
4422;SDS011;2224;49.814;8.650;2023-07-13T03:12:31;2.87;;;1.90;;
4422;SDS011;2224;49.814;8.650;2023-07-13T03:14:57;3.13;;;2.50;;
4422;SDS011;2224;49.814;8.650;2023-07-13T03:17:22;3.37;;;2.47;;
4422;SDS011;2224;49.814;8.650;2023-07-13T03:19:47;2.83;;;2.47;;
4422;SDS011;2224;49.814;8.650;2023-07-13T03:22:15;3.73;;;2.50;;
4422;SDS011;2224;49.814;8.650;2023-07-13T03:24:41;3.27;;;2.33;;
4422;SDS011;2224;49.814;8.650;2023-07-13T03:27:07;4.00;;;2.43;;
4422;SDS011;2224;49.814;8.650;2023-07-13T03:29:33;2.87;;;2.57;;
4422;SDS011;2224;49.814;8.650;2023-07-13T03:31:58;5.03;;;2.67;;
4422;SDS011;2224;49.814;8.650;2023-07-13T03:34:23;3.43;;;2.50;;
4422;SDS011;2224;49.814;8.650;2023-07-13T03:36:49;4.30;;;2.53;;
4422;SDS011;2224;49.814;8.650;2023-07-13T03:39:14;4.27;;;2.70;;
4422;SDS011;2224;49.814;8.650;2023-07-13T03:41:39;5.33;;;2.90;;
4422;SDS011;2224;49.814;8.650;2023-07-13T03:44:05;2.93;;;2.37;;
4422;SDS011;2224;49.814;8.650;2023-07-13T03:46:31;3.93;;;2.27;;
4422;SDS011;2224;49.814;8.650;2023-07-13T03:48:56;3.70;;;2.60;;
4422;SDS011;2224;49.814;8.650;2023-07-13T03:51:22;5.73;;;2.90;;
4422;SDS011;2224;49.814;8.650;2023-07-13T03:53:47;3.17;;;2.53;;
4422;SDS011;2224;49.814;8.650;2023-07-13T03:56:13;3.57;;;2.83;;
4422;SDS011;2224;49.814;8.650;2023-07-13T03:58:41;3.10;;;2.80;;
4422;SDS011;2224;49.814;8.650;2023-07-13T04:01:08;4.23;;;2.53;;
4422;SDS011;2224;49.814;8.650;2023-07-13T04:03:34;4.90;;;3.30;;
4422;SDS011;2224;49.814;8.650;2023-07-13T04:06:01;3.73;;;2.80;;
4422;SDS011;2224;49.814;8.650;2023-07-13T04:08:30;7.03;;;3.60;;
4422;SDS011;2224;49.814;8.650;2023-07-13T04:10:57;3.43;;;2.83;;
4422;SDS011;2224;49.814;8.650;2023-07-13T04:13:23;4.13;;;3.17;;
4422;SDS011;2224;49.814;8.650;2023-07-13T04:15:49;2.57;;;2.37;;
4422;SDS011;2224;49.814;8.650;2023-07-13T04:18:14;3.60;;;2.70;;
4422;SDS011;2224;49.814;8.650;2023-07-13T04:20:40;3.73;;;2.63;;
4422;SDS011;2224;49.814;8.650;2023-07-13T04:23:05;3.20;;;2.70;;
4422;SDS011;2224;49.814;8.650;2023-07-13T04:25:31;3.43;;;2.57;;
4422;SDS011;2224;49.814;8.650;2023-07-13T04:27:56;3.70;;;2.50;;
4422;SDS011;2224;49.814;8.650;2023-07-13T04:30:22;3.63;;;2.97;;
4422;SDS011;2224;49.814;8.650;2023-07-13T04:32:47;3.37;;;2.67;;
4422;SDS011;2224;49.814;8.650;2023-07-13T04:35:13;6.33;;;2.73;;
4422;SDS011;2224;49.814;8.650;2023-07-13T04:37:39;3.73;;;2.87;;
4422;SDS011;2224;49.814;8.650;2023-07-13T04:40:05;2.87;;;2.20;;
4422;SDS011;2224;49.814;8.650;2023-07-13T04:42:31;3.00;;;2.40;;
4422;SDS011;2224;49.814;8.650;2023-07-13T04:44:56;5.83;;;2.63;;
4422;SDS011;2224;49.814;8.650;2023-07-13T04:47:21;2.90;;;2.57;;
4422;SDS011;2224;49.814;8.650;2023-07-13T04:49:47;4.40;;;2.80;;
4422;SDS011;2224;49.814;8.650;2023-07-13T04:52:12;3.67;;;2.70;;
4422;SDS011;2224;49.814;8.650;2023-07-13T04:54:38;2.70;;;2.50;;
4422;SDS011;2224;49.814;8.650;2023-07-13T04:57:04;3.23;;;2.60;;
4422;SDS011;2224;49.814;8.650;2023-07-13T04:59:31;5.70;;;2.97;;
4422;SDS011;2224;49.814;8.650;2023-07-13T05:01:57;3.70;;;2.83;;
4422;SDS011;2224;49.814;8.650;2023-07-13T05:04:22;3.73;;;2.47;;
4422;SDS011;2224;49.814;8.650;2023-07-13T05:06:48;4.47;;;2.60;;
4422;SDS011;2224;49.814;8.650;2023-07-13T05:09:13;2.70;;;2.43;;
4422;SDS011;2224;49.814;8.650;2023-07-13T05:11:38;4.93;;;2.47;;
4422;SDS011;2224;49.814;8.650;2023-07-13T05:14:04;4.20;;;3.10;;
4422;SDS011;2224;49.814;8.650;2023-07-13T05:16:30;3.40;;;2.67;;
4422;SDS011;2224;49.814;8.650;2023-07-13T05:18:56;5.60;;;2.40;;
4422;SDS011;2224;49.814;8.650;2023-07-13T05:21:22;3.40;;;2.20;;
4422;SDS011;2224;49.814;8.650;2023-07-13T05:23:47;2.70;;;2.30;;
4422;SDS011;2224;49.814;8.650;2023-07-13T05:26:13;5.83;;;2.87;;
4422;SDS011;2224;49.814;8.650;2023-07-13T05:28:38;3.13;;;2.60;;
4422;SDS011;2224;49.814;8.650;2023-07-13T05:31:04;4.10;;;2.60;;
4422;SDS011;2224;49.814;8.650;2023-07-13T05:33:30;2.83;;;2.50;;
4422;SDS011;2224;49.814;8.650;2023-07-13T05:35:56;5.50;;;2.33;;
4422;SDS011;2224;49.814;8.650;2023-07-13T05:38:21;4.90;;;2.13;;
4422;SDS011;2224;49.814;8.650;2023-07-13T05:40:47;3.60;;;2.30;;
4422;SDS011;2224;49.814;8.650;2023-07-13T05:43:12;2.87;;;2.40;;
4422;SDS011;2224;49.814;8.650;2023-07-13T05:45:38;3.87;;;2.50;;
4422;SDS011;2224;49.814;8.650;2023-07-13T05:48:04;2.93;;;2.53;;
4422;SDS011;2224;49.814;8.650;2023-07-13T05:50:29;3.13;;;2.20;;
4422;SDS011;2224;49.814;8.650;2023-07-13T05:52:55;4.33;;;2.00;;
4422;SDS011;2224;49.814;8.650;2023-07-13T05:55:21;2.63;;;2.30;;
4422;SDS011;2224;49.814;8.650;2023-07-13T05:57:46;3.20;;;2.10;;
4422;SDS011;2224;49.814;8.650;2023-07-13T06:00:12;4.33;;;2.53;;
4422;SDS011;2224;49.814;8.650;2023-07-13T06:02:37;4.20;;;2.33;;
4422;SDS011;2224;49.814;8.650;2023-07-13T06:05:03;3.33;;;1.87;;
4422;SDS011;2224;49.814;8.650;2023-07-13T06:07:28;3.20;;;2.23;;
4422;SDS011;2224;49.814;8.650;2023-07-13T06:09:53;2.60;;;2.20;;
4422;SDS011;2224;49.814;8.650;2023-07-13T06:12:19;2.57;;;1.70;;
4422;SDS011;2224;49.814;8.650;2023-07-13T06:14:44;2.70;;;1.60;;
4422;SDS011;2224;49.814;8.650;2023-07-13T06:17:09;5.40;;;1.97;;
4422;SDS011;2224;49.814;8.650;2023-07-13T06:19:35;1.93;;;1.73;;
4422;SDS011;2224;49.814;8.650;2023-07-13T06:22:00;5.90;;;2.80;;
4422;SDS011;2224;49.814;8.650;2023-07-13T06:24:25;2.40;;;2.13;;
4422;SDS011;2224;49.814;8.650;2023-07-13T06:26:51;4.10;;;1.83;;
4422;SDS011;2224;49.814;8.650;2023-07-13T06:29:16;4.40;;;1.60;;
4422;SDS011;2224;49.814;8.650;2023-07-13T06:31:42;5.37;;;2.20;;
4422;SDS011;2224;49.814;8.650;2023-07-13T06:34:07;3.50;;;1.80;;
4422;SDS011;2224;49.814;8.650;2023-07-13T06:36:32;5.37;;;2.00;;
4422;SDS011;2224;49.814;8.650;2023-07-13T06:38:58;3.20;;;1.73;;
4422;SDS011;2224;49.814;8.650;2023-07-13T06:41:23;5.47;;;1.90;;
4422;SDS011;2224;49.814;8.650;2023-07-13T06:43:51;4.40;;;1.93;;
4422;SDS011;2224;49.814;8.650;2023-07-13T06:46:16;3.57;;;1.87;;
4422;SDS011;2224;49.814;8.650;2023-07-13T06:48:42;3.20;;;1.83;;
4422;SDS011;2224;49.814;8.650;2023-07-13T06:51:07;2.83;;;1.80;;
4422;SDS011;2224;49.814;8.650;2023-07-13T06:53:33;3.70;;;1.70;;
4422;SDS011;2224;49.814;8.650;2023-07-13T06:55:58;3.40;;;1.70;;
4422;SDS011;2224;49.814;8.650;2023-07-13T06:58:23;3.03;;;1.83;;
4422;SDS011;2224;49.814;8.650;2023-07-13T07:00:50;2.90;;;1.87;;
4422;SDS011;2224;49.814;8.650;2023-07-13T07:03:17;3.13;;;1.83;;
4422;SDS011;2224;49.814;8.650;2023-07-13T07:05:42;4.47;;;1.87;;
4422;SDS011;2224;49.814;8.650;2023-07-13T07:08:07;3.63;;;2.10;;
4422;SDS011;2224;49.814;8.650;2023-07-13T07:10:33;3.30;;;2.00;;
4422;SDS011;2224;49.814;8.650;2023-07-13T07:12:58;3.33;;;1.70;;
4422;SDS011;2224;49.814;8.650;2023-07-13T07:15:24;3.90;;;1.80;;
4422;SDS011;2224;49.814;8.650;2023-07-13T07:17:50;2.47;;;1.90;;
4422;SDS011;2224;49.814;8.650;2023-07-13T07:20:15;2.83;;;1.90;;
4422;SDS011;2224;49.814;8.650;2023-07-13T07:22:42;4.77;;;1.77;;
4422;SDS011;2224;49.814;8.650;2023-07-13T07:25:07;2.17;;;1.33;;
4422;SDS011;2224;49.814;8.650;2023-07-13T07:27:33;1.63;;;1.40;;
4422;SDS011;2224;49.814;8.650;2023-07-13T07:29:59;2.93;;;1.60;;
4422;SDS011;2224;49.814;8.650;2023-07-13T07:32:24;4.03;;;1.50;;
4422;SDS011;2224;49.814;8.650;2023-07-13T07:34:50;2.97;;;1.57;;
4422;SDS011;2224;49.814;8.650;2023-07-13T07:37:15;2.60;;;1.80;;
4422;SDS011;2224;49.814;8.650;2023-07-13T07:39:42;3.43;;;1.60;;
4422;SDS011;2224;49.814;8.650;2023-07-13T07:42:08;2.70;;;1.70;;
4422;SDS011;2224;49.814;8.650;2023-07-13T07:44:33;2.33;;;1.53;;
4422;SDS011;2224;49.814;8.650;2023-07-13T07:47:00;3.70;;;1.40;;
4422;SDS011;2224;49.814;8.650;2023-07-13T07:49:26;4.03;;;1.60;;
4422;SDS011;2224;49.814;8.650;2023-07-13T07:51:51;5.57;;;1.83;;
4422;SDS011;2224;49.814;8.650;2023-07-13T07:54:17;2.50;;;1.47;;
4422;SDS011;2224;49.814;8.650;2023-07-13T07:56:42;3.63;;;2.10;;
4422;SDS011;2224;49.814;8.650;2023-07-13T07:59:09;2.43;;;1.50;;
4422;SDS011;2224;49.814;8.650;2023-07-13T08:01:34;6.30;;;1.60;;
4422;SDS011;2224;49.814;8.650;2023-07-13T08:04:00;2.70;;;1.60;;
4422;SDS011;2224;49.814;8.650;2023-07-13T08:06:25;2.43;;;1.70;;
4422;SDS011;2224;49.814;8.650;2023-07-13T08:08:51;5.50;;;1.40;;
4422;SDS011;2224;49.814;8.650;2023-07-13T08:11:16;4.30;;;1.87;;
4422;SDS011;2224;49.814;8.650;2023-07-13T08:13:42;3.20;;;1.77;;
4422;SDS011;2224;49.814;8.650;2023-07-13T08:16:08;2.67;;;1.60;;
4422;SDS011;2224;49.814;8.650;2023-07-13T08:18:33;2.97;;;1.90;;
4422;SDS011;2224;49.814;8.650;2023-07-13T08:21:02;3.60;;;1.60;;
4422;SDS011;2224;49.814;8.650;2023-07-13T08:23:31;2.33;;;1.70;;
4422;SDS011;2224;49.814;8.650;2023-07-13T08:25:57;3.60;;;1.70;;
4422;SDS011;2224;49.814;8.650;2023-07-13T08:28:23;3.10;;;1.40;;
4422;SDS011;2224;49.814;8.650;2023-07-13T08:30:49;4.10;;;1.70;;
4422;SDS011;2224;49.814;8.650;2023-07-13T08:33:18;2.60;;;1.73;;
4422;SDS011;2224;49.814;8.650;2023-07-13T08:35:50;2.93;;;1.57;;
4422;SDS011;2224;49.814;8.650;2023-07-13T08:38:16;7.97;;;1.97;;
4422;SDS011;2224;49.814;8.650;2023-07-13T08:40:42;4.47;;;1.73;;
4422;SDS011;2224;49.814;8.650;2023-07-13T08:43:17;2.40;;;1.33;;
4422;SDS011;2224;49.814;8.650;2023-07-13T08:45:49;4.97;;;1.63;;
4422;SDS011;2224;49.814;8.650;2023-07-13T08:48:22;1.80;;;1.37;;
4422;SDS011;2224;49.814;8.650;2023-07-13T08:50:54;3.40;;;1.50;;
4422;SDS011;2224;49.814;8.650;2023-07-13T08:53:22;3.73;;;1.87;;
4422;SDS011;2224;49.814;8.650;2023-07-13T08:55:49;2.30;;;1.33;;
4422;SDS011;2224;49.814;8.650;2023-07-13T08:58:16;3.57;;;1.57;;
4422;SDS011;2224;49.814;8.650;2023-07-13T09:00:52;1.93;;;1.57;;
4422;SDS011;2224;49.814;8.650;2023-07-13T09:03:23;3.63;;;1.93;;
4422;SDS011;2224;49.814;8.650;2023-07-13T09:05:56;1.50;;;1.03;;
4422;SDS011;2224;49.814;8.650;2023-07-13T09:08:30;3.20;;;2.47;;
4422;SDS011;2224;49.814;8.650;2023-07-13T09:11:12;6.13;;;1.67;;
4422;SDS011;2224;49.814;8.650;2023-07-13T09:13:52;4.03;;;1.73;;
4422;SDS011;2224;49.814;8.650;2023-07-13T09:16:32;4.67;;;1.40;;
4422;SDS011;2224;49.814;8.650;2023-07-13T09:19:04;3.27;;;1.67;;
4422;SDS011;2224;49.814;8.650;2023-07-13T09:21:32;3.97;;;1.43;;
4422;SDS011;2224;49.814;8.650;2023-07-13T09:23:59;2.83;;;1.27;;
4422;SDS011;2224;49.814;8.650;2023-07-13T09:26:28;2.30;;;1.63;;
4422;SDS011;2224;49.814;8.650;2023-07-13T09:28:57;2.30;;;1.30;;
4422;SDS011;2224;49.814;8.650;2023-07-13T09:31:26;2.87;;;1.40;;
4422;SDS011;2224;49.814;8.650;2023-07-13T09:33:59;3.40;;;1.50;;
4422;SDS011;2224;49.814;8.650;2023-07-13T09:36:26;4.03;;;2.10;;
4422;SDS011;2224;49.814;8.650;2023-07-13T09:38:58;2.20;;;1.33;;
4422;SDS011;2224;49.814;8.650;2023-07-13T09:41:47;2.80;;;2.27;;
4422;SDS011;2224;49.814;8.650;2023-07-13T09:44:16;4.07;;;1.60;;
4422;SDS011;2224;49.814;8.650;2023-07-13T09:46:44;5.47;;;1.77;;
4422;SDS011;2224;49.814;8.650;2023-07-13T09:49:17;1.80;;;1.37;;
4422;SDS011;2224;49.814;8.650;2023-07-13T09:51:43;4.60;;;1.70;;
4422;SDS011;2224;49.814;8.650;2023-07-13T09:54:27;2.00;;;1.27;;
4422;SDS011;2224;49.814;8.650;2023-07-13T09:56:59;4.77;;;1.70;;
4422;SDS011;2224;49.814;8.650;2023-07-13T09:59:30;3.50;;;1.23;;
4422;SDS011;2224;49.814;8.650;2023-07-13T10:01:57;3.40;;;1.20;;
4422;SDS011;2224;49.814;8.650;2023-07-13T10:04:27;2.97;;;1.80;;
4422;SDS011;2224;49.814;8.650;2023-07-13T10:07:05;4.33;;;1.43;;
4422;SDS011;2224;49.814;8.650;2023-07-13T10:09:32;1.80;;;1.20;;
4422;SDS011;2224;49.814;8.650;2023-07-13T10:11:57;3.33;;;1.60;;
4422;SDS011;2224;49.814;8.650;2023-07-13T10:14:23;3.07;;;1.20;;
4422;SDS011;2224;49.814;8.650;2023-07-13T10:16:51;2.30;;;1.27;;
4422;SDS011;2224;49.814;8.650;2023-07-13T10:19:22;2.03;;;1.40;;
4422;SDS011;2224;49.814;8.650;2023-07-13T10:24:24;2.80;;;1.40;;
4422;SDS011;2224;49.814;8.650;2023-07-13T10:29:45;1.97;;;1.33;;
4422;SDS011;2224;49.814;8.650;2023-07-13T10:32:13;2.27;;;1.40;;
4422;SDS011;2224;49.814;8.650;2023-07-13T10:34:39;4.10;;;1.40;;
4422;SDS011;2224;49.814;8.650;2023-07-13T10:37:05;2.27;;;1.40;;
4422;SDS011;2224;49.814;8.650;2023-07-13T10:39:34;3.70;;;1.50;;
4422;SDS011;2224;49.814;8.650;2023-07-13T10:42:01;1.67;;;1.30;;
4422;SDS011;2224;49.814;8.650;2023-07-13T10:44:30;4.17;;;1.60;;
4422;SDS011;2224;49.814;8.650;2023-07-13T10:47:00;3.73;;;1.20;;
4422;SDS011;2224;49.814;8.650;2023-07-13T10:49:27;2.43;;;1.50;;
4422;SDS011;2224;49.814;8.650;2023-07-13T10:51:53;3.43;;;1.20;;
4422;SDS011;2224;49.814;8.650;2023-07-13T10:54:20;3.80;;;1.47;;
4422;SDS011;2224;49.814;8.650;2023-07-13T10:56:48;5.00;;;1.30;;
4422;SDS011;2224;49.814;8.650;2023-07-13T10:59:17;2.83;;;1.40;;
4422;SDS011;2224;49.814;8.650;2023-07-13T11:04:17;4.80;;;1.63;;
4422;SDS011;2224;49.814;8.650;2023-07-13T11:06:45;4.43;;;1.33;;
4422;SDS011;2224;49.814;8.650;2023-07-13T11:11:45;2.83;;;1.47;;
4422;SDS011;2224;49.814;8.650;2023-07-13T11:16:45;1.93;;;1.40;;
4422;SDS011;2224;49.814;8.650;2023-07-13T11:24:47;2.73;;;1.40;;
4422;SDS011;2224;49.814;8.650;2023-07-13T11:27:21;5.30;;;1.73;;
4422;SDS011;2224;49.814;8.650;2023-07-13T11:29:50;2.30;;;1.40;;
4422;SDS011;2224;49.814;8.650;2023-07-13T11:32:23;1.93;;;1.33;;
4422;SDS011;2224;49.814;8.650;2023-07-13T11:34:51;2.60;;;1.33;;
4422;SDS011;2224;49.814;8.650;2023-07-13T11:37:18;2.17;;;1.40;;
4422;SDS011;2224;49.814;8.650;2023-07-13T11:39:44;2.40;;;1.27;;
4422;SDS011;2224;49.814;8.650;2023-07-13T11:42:12;5.57;;;1.43;;
4422;SDS011;2224;49.814;8.650;2023-07-13T11:44:46;2.07;;;1.30;;
4422;SDS011;2224;49.814;8.650;2023-07-13T11:47:20;3.40;;;1.33;;
4422;SDS011;2224;49.814;8.650;2023-07-13T11:49:50;3.70;;;1.30;;
4422;SDS011;2224;49.814;8.650;2023-07-13T11:52:27;2.37;;;1.13;;
4422;SDS011;2224;49.814;8.650;2023-07-13T11:55:00;2.60;;;1.20;;
4422;SDS011;2224;49.814;8.650;2023-07-13T11:59:56;3.87;;;1.20;;
4422;SDS011;2224;49.814;8.650;2023-07-13T12:02:32;2.80;;;1.63;;
4422;SDS011;2224;49.814;8.650;2023-07-13T12:04:59;2.50;;;1.47;;
4422;SDS011;2224;49.814;8.650;2023-07-13T12:07:27;1.77;;;1.27;;
4422;SDS011;2224;49.814;8.650;2023-07-13T12:09:59;2.60;;;1.37;;
4422;SDS011;2224;49.814;8.650;2023-07-13T12:12:37;1.43;;;1.10;;
4422;SDS011;2224;49.814;8.650;2023-07-13T12:15:07;3.50;;;1.30;;
4422;SDS011;2224;49.814;8.650;2023-07-13T12:17:34;2.30;;;1.30;;
4422;SDS011;2224;49.814;8.650;2023-07-13T12:20:00;2.47;;;1.10;;
4422;SDS011;2224;49.814;8.650;2023-07-13T12:22:25;3.10;;;1.40;;
4422;SDS011;2224;49.814;8.650;2023-07-13T12:24:52;1.97;;;1.30;;
4422;SDS011;2224;49.814;8.650;2023-07-13T12:30:01;2.87;;;1.33;;
4422;SDS011;2224;49.814;8.650;2023-07-13T12:32:30;2.93;;;1.00;;
4422;SDS011;2224;49.814;8.650;2023-07-13T12:34:57;2.03;;;1.27;;
4422;SDS011;2224;49.814;8.650;2023-07-13T12:37:29;2.00;;;1.27;;
4422;SDS011;2224;49.814;8.650;2023-07-13T12:39:56;3.77;;;1.40;;
4422;SDS011;2224;49.814;8.650;2023-07-13T12:42:25;2.27;;;1.53;;
4422;SDS011;2224;49.814;8.650;2023-07-13T12:44:53;2.63;;;1.40;;
4422;SDS011;2224;49.814;8.650;2023-07-13T12:47:48;3.83;;;1.60;;
4422;SDS011;2224;49.814;8.650;2023-07-13T12:50:17;2.43;;;1.60;;
4422;SDS011;2224;49.814;8.650;2023-07-13T12:52:51;2.13;;;1.47;;
4422;SDS011;2224;49.814;8.650;2023-07-13T12:55:18;2.77;;;1.50;;
4422;SDS011;2224;49.814;8.650;2023-07-13T12:57:53;2.10;;;1.33;;
4422;SDS011;2224;49.814;8.650;2023-07-13T13:02:50;1.97;;;1.30;;
4422;SDS011;2224;49.814;8.650;2023-07-13T13:05:16;2.50;;;1.33;;
4422;SDS011;2224;49.814;8.650;2023-07-13T13:07:41;2.20;;;1.40;;
4422;SDS011;2224;49.814;8.650;2023-07-13T13:10:13;3.50;;;1.33;;
4422;SDS011;2224;49.814;8.650;2023-07-13T13:12:39;2.20;;;1.20;;
4422;SDS011;2224;49.814;8.650;2023-07-13T13:15:07;3.23;;;1.53;;
4422;SDS011;2224;49.814;8.650;2023-07-13T13:17:33;1.80;;;1.40;;
4422;SDS011;2224;49.814;8.650;2023-07-13T13:19:59;2.20;;;1.43;;
4422;SDS011;2224;49.814;8.650;2023-07-13T13:22:24;4.23;;;1.10;;
4422;SDS011;2224;49.814;8.650;2023-07-13T13:24:49;2.53;;;1.67;;
4422;SDS011;2224;49.814;8.650;2023-07-13T13:27:18;1.90;;;1.40;;
4422;SDS011;2224;49.814;8.650;2023-07-13T13:29:45;3.10;;;1.50;;
4422;SDS011;2224;49.814;8.650;2023-07-13T13:32:12;4.50;;;1.43;;
4422;SDS011;2224;49.814;8.650;2023-07-13T13:34:38;3.17;;;1.50;;
4422;SDS011;2224;49.814;8.650;2023-07-13T13:37:04;4.00;;;1.80;;
4422;SDS011;2224;49.814;8.650;2023-07-13T13:39:43;2.53;;;1.60;;
4422;SDS011;2224;49.814;8.650;2023-07-13T13:42:09;3.20;;;1.70;;
4422;SDS011;2224;49.814;8.650;2023-07-13T13:44:35;3.87;;;1.43;;
4422;SDS011;2224;49.814;8.650;2023-07-13T13:47:00;3.43;;;1.50;;
4422;SDS011;2224;49.814;8.650;2023-07-13T13:49:27;3.10;;;1.40;;
4422;SDS011;2224;49.814;8.650;2023-07-13T13:51:53;2.83;;;1.50;;
4422;SDS011;2224;49.814;8.650;2023-07-13T13:54:19;5.73;;;1.50;;
4422;SDS011;2224;49.814;8.650;2023-07-13T13:56:47;3.43;;;1.40;;
4422;SDS011;2224;49.814;8.650;2023-07-13T13:59:13;1.43;;;1.03;;
4422;SDS011;2224;49.814;8.650;2023-07-13T14:01:39;2.80;;;1.47;;
4422;SDS011;2224;49.814;8.650;2023-07-13T14:04:06;2.70;;;2.00;;
4422;SDS011;2224;49.814;8.650;2023-07-13T14:06:32;3.87;;;1.57;;
4422;SDS011;2224;49.814;8.650;2023-07-13T14:08:58;3.50;;;1.33;;
4422;SDS011;2224;49.814;8.650;2023-07-13T14:11:24;2.33;;;1.33;;
4422;SDS011;2224;49.814;8.650;2023-07-13T14:13:54;2.67;;;1.43;;
4422;SDS011;2224;49.814;8.650;2023-07-13T14:16:21;3.20;;;1.67;;
4422;SDS011;2224;49.814;8.650;2023-07-13T14:18:48;5.97;;;1.30;;
4422;SDS011;2224;49.814;8.650;2023-07-13T14:21:14;6.40;;;2.10;;
4422;SDS011;2224;49.814;8.650;2023-07-13T14:23:44;5.70;;;2.00;;
4422;SDS011;2224;49.814;8.650;2023-07-13T14:26:18;3.27;;;1.53;;
4422;SDS011;2224;49.814;8.650;2023-07-13T14:28:47;4.43;;;1.67;;
4422;SDS011;2224;49.814;8.650;2023-07-13T14:31:15;2.73;;;1.70;;
4422;SDS011;2224;49.814;8.650;2023-07-13T14:33:41;4.80;;;1.57;;
4422;SDS011;2224;49.814;8.650;2023-07-13T14:38:41;1.57;;;1.00;;
4422;SDS011;2224;49.814;8.650;2023-07-13T14:41:07;2.30;;;1.60;;
4422;SDS011;2224;49.814;8.650;2023-07-13T14:43:33;2.47;;;1.27;;
4422;SDS011;2224;49.814;8.650;2023-07-13T14:45:58;2.20;;;1.40;;
4422;SDS011;2224;49.814;8.650;2023-07-13T14:48:24;2.80;;;1.53;;
4422;SDS011;2224;49.814;8.650;2023-07-13T14:50:52;2.50;;;1.70;;
4422;SDS011;2224;49.814;8.650;2023-07-13T14:53:18;2.73;;;1.20;;
4422;SDS011;2224;49.814;8.650;2023-07-13T14:55:44;3.77;;;1.53;;
4422;SDS011;2224;49.814;8.650;2023-07-13T14:58:09;2.57;;;1.43;;
4422;SDS011;2224;49.814;8.650;2023-07-13T15:00:35;3.30;;;1.40;;
4422;SDS011;2224;49.814;8.650;2023-07-13T15:03:00;1.43;;;1.20;;
4422;SDS011;2224;49.814;8.650;2023-07-13T15:05:30;1.90;;;1.33;;
4422;SDS011;2224;49.814;8.650;2023-07-13T15:08:00;5.50;;;1.57;;
4422;SDS011;2224;49.814;8.650;2023-07-13T15:10:28;3.33;;;1.40;;
4422;SDS011;2224;49.814;8.650;2023-07-13T15:13:00;3.03;;;1.53;;
4422;SDS011;2224;49.814;8.650;2023-07-13T15:15:28;2.50;;;1.63;;
4422;SDS011;2224;49.814;8.650;2023-07-13T15:17:54;4.50;;;1.43;;
4422;SDS011;2224;49.814;8.650;2023-07-13T15:22:48;4.27;;;1.57;;
4422;SDS011;2224;49.814;8.650;2023-07-13T15:25:15;5.23;;;1.50;;
4422;SDS011;2224;49.814;8.650;2023-07-13T15:27:45;2.00;;;1.30;;
4422;SDS011;2224;49.814;8.650;2023-07-13T15:30:11;4.80;;;1.43;;
4422;SDS011;2224;49.814;8.650;2023-07-13T15:32:37;2.53;;;1.60;;
4422;SDS011;2224;49.814;8.650;2023-07-13T15:35:02;3.23;;;1.50;;
4422;SDS011;2224;49.814;8.650;2023-07-13T15:37:28;5.17;;;1.40;;
4422;SDS011;2224;49.814;8.650;2023-07-13T15:39:54;3.90;;;1.50;;
4422;SDS011;2224;49.814;8.650;2023-07-13T15:42:20;3.00;;;1.43;;
4422;SDS011;2224;49.814;8.650;2023-07-13T15:44:45;2.37;;;1.50;;
4422;SDS011;2224;49.814;8.650;2023-07-13T15:47:12;3.00;;;1.57;;
4422;SDS011;2224;49.814;8.650;2023-07-13T15:49:39;1.77;;;1.27;;
4422;SDS011;2224;49.814;8.650;2023-07-13T15:52:10;2.60;;;1.37;;